createdAt,value
2019-04-29T00:00:33.399Z,6.67
2019-04-29T00:03:06.988Z,6.93
2019-04-29T00:05:40.472Z,6.43
2019-04-29T00:08:14.038Z,6.60
2019-04-29T00:10:47.468Z,6.20
2019-04-29T00:13:21.102Z,6.10
2019-04-29T00:16:14.371Z,5.70
2019-04-29T00:19:04.725Z,6.03
2019-04-29T00:21:39.327Z,6.07
2019-04-29T00:24:12.953Z,6.07
2019-04-29T00:26:46.486Z,6.10
2019-04-29T00:29:19.942Z,5.77
2019-04-29T00:31:53.449Z,5.47
2019-04-29T00:34:26.925Z,5.73
2019-04-29T00:37:11.220Z,6.00
2019-04-29T00:39:46.381Z,6.10
2019-04-29T00:42:21.472Z,6.90
2019-04-29T00:44:55.081Z,6.80
2019-04-29T00:47:28.685Z,7.53
2019-04-29T00:50:02.179Z,5.73
2019-04-29T00:52:35.626Z,6.57
2019-04-29T00:55:13.739Z,6.03
2019-04-29T00:57:47.129Z,6.87
2019-04-29T01:00:31.715Z,6.57
2019-04-29T01:03:05.189Z,6.57
2019-04-29T01:05:39.071Z,6.50
2019-04-29T01:08:12.796Z,5.37
2019-04-29T01:10:46.356Z,6.53
2019-04-29T01:13:19.827Z,5.23
2019-04-29T01:15:53.446Z,4.77
2019-04-29T01:18:26.997Z,5.13
2019-04-29T01:21:00.553Z,6.03
2019-04-29T01:23:34.085Z,5.00
2019-04-29T01:26:18.013Z,5.03
2019-04-29T01:28:56.235Z,5.17
2019-04-29T01:31:31.357Z,4.50
2019-04-29T01:34:06.426Z,4.57
2019-04-29T01:36:44.267Z,4.50
2019-04-29T01:39:17.999Z,4.07
2019-04-29T01:41:53.081Z,5.60
2019-04-29T01:44:28.206Z,4.70
2019-04-29T01:47:01.691Z,4.83
2019-04-29T01:49:35.150Z,5.50
2019-04-29T01:52:08.611Z,4.47
2019-04-29T01:54:42.059Z,4.50
2019-04-29T01:57:15.604Z,6.20
2019-04-29T01:59:49.104Z,5.43
2019-04-29T02:02:22.751Z,5.70
2019-04-29T02:04:56.340Z,5.60
2019-04-29T02:07:29.989Z,5.17
2019-04-29T02:10:05.681Z,5.93
2019-04-29T02:12:39.305Z,4.87
2019-04-29T02:15:12.963Z,5.37
2019-04-29T02:17:46.504Z,5.60
2019-04-29T02:20:19.935Z,5.40
2019-04-29T02:22:55.049Z,5.40
2019-04-29T02:25:30.167Z,5.30
2019-04-29T02:28:03.705Z,5.23
2019-04-29T02:30:42.392Z,5.27
2019-04-29T02:33:15.910Z,5.50
2019-04-29T02:35:49.410Z,5.17
2019-04-29T02:38:24.519Z,6.30
2019-04-29T02:41:02.670Z,5.47
2019-04-29T02:43:37.819Z,6.13
2019-04-29T02:46:11.309Z,6.37
2019-04-29T02:48:44.754Z,6.13
2019-04-29T02:51:19.921Z,6.47
2019-04-29T02:53:53.440Z,6.10
2019-04-29T02:56:26.928Z,6.60
2019-04-29T02:59:02.026Z,6.53
2019-04-29T03:01:45.890Z,6.87
2019-04-29T03:04:21.103Z,5.83
2019-04-29T03:06:54.665Z,6.13
2019-04-29T03:09:28.171Z,6.30
2019-04-29T03:12:02.010Z,5.63
2019-04-29T03:14:35.785Z,6.00
2019-04-29T03:17:09.927Z,6.87
2019-04-29T03:20:01.825Z,5.67
2019-04-29T03:22:35.863Z,5.97
2019-04-29T03:25:09.505Z,6.03
2019-04-29T03:27:43.040Z,6.90
2019-04-29T03:30:16.535Z,7.10
2019-04-29T03:32:50.038Z,6.37
2019-04-29T03:35:23.518Z,5.90
2019-04-29T03:37:57.303Z,6.13
2019-04-29T03:40:30.761Z,5.57
2019-04-29T03:43:04.282Z,6.13
2019-04-29T03:45:37.836Z,6.57
2019-04-29T03:48:11.284Z,6.23
2019-04-29T03:50:44.787Z,7.40
2019-04-29T03:53:18.238Z,7.87
2019-04-29T03:55:53.272Z,7.40
2019-04-29T03:58:26.825Z,7.87
2019-04-29T04:01:02.064Z,7.63
2019-04-29T04:03:42.986Z,7.53
2019-04-29T04:06:24.361Z,8.10
2019-04-29T04:09:06.216Z,8.00
2019-04-29T04:11:34.657Z,7.13
2019-04-29T04:14:08.320Z,8.20
2019-04-29T04:16:49.599Z,7.53
2019-04-29T04:19:23.936Z,7.57
2019-04-29T04:21:57.638Z,8.20
2019-04-29T04:24:31.223Z,7.23
2019-04-29T04:27:04.801Z,7.37
2019-04-29T04:29:38.334Z,7.60
2019-04-29T04:32:11.983Z,7.30
2019-04-29T04:34:45.448Z,7.63
2019-04-29T04:37:18.943Z,7.07
2019-04-29T04:39:52.520Z,7.63
2019-04-29T04:42:29.634Z,7.17
2019-04-29T04:45:02.446Z,7.40
2019-04-29T04:47:35.932Z,7.13
2019-04-29T04:50:09.589Z,8.87
2019-04-29T04:52:43.163Z,7.67
2019-04-29T04:55:16.737Z,9.13
2019-04-29T04:57:50.351Z,8.73
2019-04-29T05:00:25.623Z,8.13
2019-04-29T05:02:59.255Z,9.67
2019-04-29T05:05:33.053Z,7.90
2019-04-29T05:08:06.756Z,7.17
2019-04-29T05:10:40.299Z,6.90
2019-04-29T05:13:27.261Z,7.00
2019-04-29T05:15:49.668Z,6.70
2019-04-29T05:18:23.187Z,6.40
2019-04-29T05:20:56.825Z,6.27
2019-04-29T05:23:30.252Z,6.33
2019-04-29T05:26:03.614Z,6.70
2019-04-29T05:28:37.065Z,6.57
2019-04-29T05:31:10.496Z,6.17
2019-04-29T05:33:43.940Z,6.37
2019-04-29T05:36:19.521Z,6.30
2019-04-29T05:38:54.782Z,6.40
2019-04-29T05:41:30.209Z,6.57
2019-04-29T05:44:11.412Z,6.77
2019-04-29T05:46:55.642Z,6.40
2019-04-29T05:49:30.886Z,6.57
2019-04-29T05:52:09.051Z,6.37
2019-04-29T05:54:43.970Z,6.20
2019-04-29T05:57:20.352Z,6.30
2019-04-29T05:59:52.863Z,6.40
2019-04-29T06:02:33.704Z,6.57
2019-04-29T06:05:01.788Z,6.50
2019-04-29T06:07:35.444Z,7.10
2019-04-29T06:10:09.077Z,6.73
2019-04-29T06:12:44.502Z,6.40
2019-04-29T06:15:17.908Z,6.20
2019-04-29T06:17:51.556Z,6.30
2019-04-29T06:20:25.262Z,6.27
2019-04-29T06:22:58.810Z,6.23
2019-04-29T06:25:32.432Z,5.47
2019-04-29T06:28:06.167Z,5.97
2019-04-29T06:30:40.738Z,5.30
2019-04-29T06:33:14.428Z,6.00
2019-04-29T06:35:48.983Z,5.50
2019-04-29T06:38:22.615Z,5.90
2019-04-29T06:40:56.091Z,6.00
2019-04-29T06:43:30.856Z,6.90
2019-04-29T06:46:04.428Z,7.20
2019-04-29T06:48:37.994Z,7.30
2019-04-29T06:51:11.386Z,6.53
2019-04-29T06:53:47.683Z,6.90
2019-04-29T06:56:20.313Z,6.40
2019-04-29T06:58:53.970Z,6.60
2019-04-29T07:01:27.662Z,6.70
2019-04-29T07:04:01.535Z,6.87
2019-04-29T07:06:35.039Z,6.10
2019-04-29T07:09:08.576Z,6.33
2019-04-29T07:11:41.960Z,6.90
2019-04-29T07:14:15.501Z,6.73
2019-04-29T07:16:49.092Z,6.80
2019-04-29T07:19:26.720Z,7.07
2019-04-29T07:21:57.981Z,6.50
2019-04-29T07:24:31.423Z,7.00
2019-04-29T07:27:04.823Z,7.00
2019-04-29T07:29:38.396Z,6.90
2019-04-29T07:32:12.125Z,7.00
2019-04-29T07:34:45.601Z,6.70
2019-04-29T07:37:19.476Z,5.90
2019-04-29T07:39:53.079Z,6.70
2019-04-29T07:42:32.316Z,6.50
2019-04-29T07:45:12.451Z,6.27
2019-04-29T07:47:56.280Z,6.30
2019-04-29T07:50:26.650Z,6.27
2019-04-29T07:52:58.565Z,6.60
2019-04-29T07:55:32.593Z,6.67
2019-04-29T07:58:06.533Z,6.40
2019-04-29T08:00:40.195Z,6.57
2019-04-29T08:03:13.812Z,6.53
2019-04-29T08:05:47.413Z,6.40
2019-04-29T08:08:22.869Z,6.40
2019-04-29T08:10:56.919Z,6.50
2019-04-29T08:13:31.865Z,6.47
2019-04-29T08:16:05.559Z,6.20
2019-04-29T08:18:39.067Z,5.93
2019-04-29T08:21:14.307Z,5.90
2019-04-29T08:23:47.873Z,5.90
2019-04-29T08:26:21.694Z,5.50
2019-04-29T08:29:00.371Z,5.50
2019-04-29T08:31:30.698Z,5.77
2019-04-29T08:34:04.271Z,5.80
2019-04-29T08:36:38.092Z,5.87
2019-04-29T08:39:12.073Z,5.53
2019-04-29T08:41:45.536Z,5.60
2019-04-29T08:44:35.605Z,5.70
2019-04-29T08:47:17.267Z,5.67
2019-04-29T08:49:51.280Z,5.80
2019-04-29T08:52:25.001Z,5.00
2019-04-29T08:54:58.680Z,4.87
2019-04-29T08:57:36.498Z,5.97
2019-04-29T09:00:08.695Z,5.90
2019-04-29T09:02:47.261Z,5.30
2019-04-29T09:05:17.445Z,5.33
2019-04-29T09:07:52.619Z,5.57
2019-04-29T09:10:26.401Z,5.00
2019-04-29T09:13:00.095Z,5.40
2019-04-29T09:15:33.562Z,5.47
2019-04-29T09:18:07.085Z,5.00
2019-04-29T09:20:40.633Z,5.63
2019-04-29T09:23:15.649Z,5.87
2019-04-29T09:26:02.542Z,5.50
2019-04-29T09:28:29.867Z,5.47
2019-04-29T09:31:04.866Z,5.70
2019-04-29T09:33:44.116Z,5.30
2019-04-29T09:36:15.352Z,5.30
2019-04-29T09:38:48.800Z,5.20
2019-04-29T09:41:23.848Z,5.97
2019-04-29T09:44:05.597Z,5.47
2019-04-29T09:46:39.340Z,5.30
2019-04-29T09:49:12.806Z,4.73
2019-04-29T09:51:46.377Z,5.03
2019-04-29T09:54:19.766Z,5.23
2019-04-29T09:56:54.190Z,5.30
2019-04-29T09:59:29.355Z,4.60
2019-04-29T10:05:38.401Z,4.60
2019-04-29T10:08:25.220Z,4.30
2019-04-29T10:10:58.805Z,4.37
2019-04-29T10:13:32.391Z,4.80
2019-04-29T10:16:07.697Z,4.77
2019-04-29T10:19:05.145Z,4.37
2019-04-29T10:21:36.342Z,4.43
2019-04-29T10:24:09.922Z,4.40
2019-04-29T10:26:43.506Z,4.20
2019-04-29T10:29:20.265Z,3.47
2019-04-29T10:31:54.440Z,3.53
2019-04-29T10:34:31.553Z,3.47
2019-04-29T10:37:03.817Z,3.50
2019-04-29T10:39:42.197Z,4.10
2019-04-29T10:42:16.051Z,3.47
2019-04-29T10:44:56.797Z,3.00
2019-04-29T10:47:37.578Z,2.90
2019-04-29T10:50:17.047Z,3.10
2019-04-29T10:52:50.852Z,3.10
2019-04-29T10:55:25.625Z,3.43
2019-04-29T10:58:00.154Z,3.03
2019-04-29T11:01:14.791Z,3.57
2019-04-29T11:03:48.722Z,3.17
2019-04-29T11:06:22.512Z,3.13
2019-04-29T11:08:57.650Z,2.83
2019-04-29T11:11:33.129Z,3.17
2019-04-29T11:14:06.873Z,2.67
2019-04-29T11:16:46.634Z,3.10
2019-04-29T11:19:15.757Z,3.40
2019-04-29T11:21:49.269Z,3.27
2019-04-29T11:24:39.718Z,3.07
2019-04-29T11:27:17.462Z,2.67
2019-04-29T11:29:50.978Z,3.00
2019-04-29T11:32:29.286Z,3.03
2019-04-29T11:35:05.810Z,3.57
2019-04-29T11:37:39.282Z,3.43
2019-04-29T11:40:13.058Z,4.03
2019-04-29T11:42:46.424Z,3.30
2019-04-29T11:45:21.211Z,3.80
2019-04-29T11:47:54.762Z,3.77
2019-04-29T11:50:32.945Z,3.20
2019-04-29T11:53:06.915Z,3.57
2019-04-29T11:55:43.399Z,3.17
2019-04-29T11:58:23.019Z,3.30
2019-04-29T12:01:14.545Z,3.67
2019-04-29T12:03:56.609Z,3.73
2019-04-29T12:06:27.891Z,3.97
2019-04-29T12:09:01.412Z,3.83
2019-04-29T12:11:36.249Z,3.43
2019-04-29T12:14:27.208Z,3.73
2019-04-29T12:17:02.442Z,4.20
2019-04-29T12:19:53.252Z,4.23
2019-04-29T12:22:30.654Z,4.07
2019-04-29T12:25:02.030Z,3.70
2019-04-29T12:27:35.522Z,4.57
2019-04-29T12:30:11.470Z,3.80
2019-04-29T12:33:03.212Z,4.30
2019-04-29T12:35:51.567Z,3.83
2019-04-29T12:38:39.337Z,4.23
2019-04-29T12:41:04.264Z,3.93
2019-04-29T12:43:48.578Z,3.80
2019-04-29T12:46:33.471Z,3.60
2019-04-29T12:49:08.472Z,3.63
2019-04-29T12:51:42.190Z,3.80
2019-04-29T12:54:15.741Z,3.83
2019-04-29T12:56:49.484Z,3.30
2019-04-29T12:59:23.145Z,3.20
2019-04-29T13:01:59.184Z,3.33
2019-04-29T13:04:49.783Z,2.93
2019-04-29T13:07:42.937Z,3.07
2019-04-29T13:10:16.997Z,3.00
2019-04-29T13:12:50.609Z,2.40
2019-04-29T13:15:37.875Z,2.40
2019-04-29T13:18:23.421Z,2.03
2019-04-29T13:21:09.518Z,2.10
2019-04-29T13:23:36.202Z,3.07
2019-04-29T13:26:08.211Z,2.00
2019-04-29T13:28:59.106Z,1.57
2019-04-29T13:31:20.122Z,1.80
2019-04-29T13:33:53.983Z,1.50
2019-04-29T13:36:27.460Z,1.40
2019-04-29T13:39:01.790Z,1.30
2019-04-29T13:41:35.226Z,1.20
2019-04-29T13:44:08.831Z,1.40
2019-04-29T13:47:00.241Z,1.50
2019-04-29T13:49:38.154Z,1.50
2019-04-29T13:52:12.934Z,1.50
2019-04-29T13:54:46.697Z,1.30
2019-04-29T13:57:20.303Z,1.20
2019-04-29T14:00:01.607Z,1.50
2019-04-29T14:02:37.051Z,1.33
2019-04-29T14:05:12.235Z,1.50
2019-04-29T14:07:48.633Z,1.70
2019-04-29T14:10:21.252Z,1.30
2019-04-29T14:13:09.008Z,1.47
2019-04-29T14:15:33.903Z,1.47
2019-04-29T14:18:06.752Z,1.53
2019-04-29T14:20:41.527Z,1.50
2019-04-29T14:23:15.016Z,2.00
2019-04-29T14:25:48.579Z,1.90
2019-04-29T14:28:22.016Z,1.70
2019-04-29T14:30:56.037Z,1.60
2019-04-29T14:33:39.999Z,1.70
2019-04-29T14:36:13.554Z,2.13
2019-04-29T14:38:47.135Z,1.90
2019-04-29T14:41:20.948Z,1.97
2019-04-29T14:44:01.931Z,2.00
2019-04-29T14:46:37.234Z,1.90
2019-04-29T14:49:16.169Z,1.90
2019-04-29T14:51:49.763Z,2.07
2019-04-29T14:54:23.536Z,2.30
2019-04-29T14:56:57.180Z,2.90
2019-04-29T14:59:30.721Z,2.70
2019-04-29T15:02:16.825Z,2.50
2019-04-29T15:04:47.012Z,2.53
2019-04-29T15:07:20.917Z,2.80
2019-04-29T15:09:58.204Z,2.90
2019-04-29T15:12:51.272Z,3.00
2019-04-29T15:15:22.712Z,3.17
2019-04-29T15:18:00.798Z,3.30
2019-04-29T15:20:35.999Z,3.50
2019-04-29T15:23:09.449Z,3.47
2019-04-29T15:25:42.988Z,3.77
2019-04-29T15:28:18.910Z,3.63
2019-04-29T15:30:51.797Z,4.33
2019-04-29T15:33:25.360Z,3.63
2019-04-29T15:35:59.791Z,4.43
2019-04-29T15:38:34.219Z,4.77
2019-04-29T15:41:07.840Z,4.00
2019-04-29T15:43:46.885Z,4.83
2019-04-29T15:46:57.167Z,4.50
2019-04-29T15:49:31.226Z,4.83
2019-04-29T15:52:04.748Z,4.43
2019-04-29T15:54:38.361Z,4.27
2019-04-29T15:57:15.398Z,4.83
2019-04-29T16:03:28.547Z,4.10
2019-04-29T16:06:20.541Z,3.90
2019-04-29T16:08:46.303Z,4.10
2019-04-29T16:11:39.707Z,4.10
2019-04-29T16:14:24.051Z,4.00
2019-04-29T16:16:57.596Z,4.37
2019-04-29T16:19:31.280Z,3.80
2019-04-29T16:22:04.972Z,4.10
2019-04-29T16:24:38.768Z,4.73
2019-04-29T16:27:12.305Z,4.10
2019-04-29T16:29:51.053Z,4.10
2019-04-29T16:32:22.696Z,4.60
2019-04-29T16:34:56.277Z,3.63
2019-04-29T16:37:31.732Z,3.73
2019-04-29T16:40:07.482Z,4.40
2019-04-29T16:42:54.848Z,4.73
2019-04-29T16:45:44.363Z,4.87
2019-04-29T16:48:17.554Z,4.40
2019-04-29T16:50:51.154Z,5.27
2019-04-29T16:53:24.872Z,4.30
2019-04-29T16:55:58.587Z,4.40
2019-04-29T16:58:32.262Z,4.70
2019-04-29T17:01:06.002Z,4.63
2019-04-29T17:03:39.532Z,4.23
2019-04-29T17:06:13.311Z,5.00
2019-04-29T17:09:05.075Z,5.20
2019-04-29T17:11:37.209Z,5.33
2019-04-29T17:14:12.748Z,5.73
2019-04-29T17:16:46.316Z,6.20
2019-04-29T17:19:19.830Z,5.60
2019-04-29T17:21:53.529Z,5.77
2019-04-29T17:24:27.181Z,6.33
2019-04-29T17:27:08.654Z,6.47
2019-04-29T17:29:49.291Z,6.40
2019-04-29T17:32:44.413Z,6.23
2019-04-29T17:35:12.932Z,6.87
2019-04-29T17:37:46.776Z,6.87
2019-04-29T17:40:21.157Z,6.90
2019-04-29T17:43:04.854Z,6.83
2019-04-29T17:45:42.333Z,7.00
2019-04-29T17:48:35.610Z,6.70
2019-04-29T17:51:10.863Z,10.63
2019-04-29T17:53:46.119Z,7.87
2019-04-29T17:56:21.267Z,8.00
2019-04-29T17:58:58.337Z,8.17
2019-04-29T18:01:42.587Z,8.90
2019-04-29T18:04:19.980Z,9.40
2019-04-29T18:07:12.199Z,8.03
2019-04-29T18:09:47.579Z,7.70
2019-04-29T18:12:22.300Z,11.07
2019-04-29T18:14:55.888Z,10.53
2019-04-29T18:17:31.886Z,10.03
2019-04-29T18:20:32.196Z,10.30
2019-04-29T18:23:00.320Z,11.03
2019-04-29T18:25:44.893Z,11.03
2019-04-29T18:28:18.546Z,12.73
2019-04-29T18:30:57.725Z,13.97
2019-04-29T18:33:30.503Z,13.57
2019-04-29T18:36:06.821Z,12.50
2019-04-29T18:38:42.426Z,13.30
2019-04-29T18:41:24.288Z,11.63
2019-04-29T18:43:49.954Z,11.43
2019-04-29T18:46:25.759Z,11.67
2019-04-29T18:49:02.867Z,10.60
2019-04-29T18:51:34.778Z,11.63
2019-04-29T18:54:08.369Z,10.60
2019-04-29T18:56:41.989Z,11.60
2019-04-29T18:59:19.774Z,11.87
2019-04-29T19:01:54.870Z,12.50
2019-04-29T19:04:42.019Z,12.10
2019-04-29T19:07:15.632Z,12.03
2019-04-29T19:09:49.244Z,12.40
2019-04-29T19:12:22.808Z,12.33
2019-04-29T19:14:59.692Z,12.63
2019-04-29T19:17:36.747Z,13.77
2019-04-29T19:20:08.565Z,12.60
2019-04-29T19:22:44.056Z,15.30
2019-04-29T19:25:19.417Z,15.27
2019-04-29T19:27:52.855Z,13.93
2019-04-29T19:30:29.016Z,15.10
2019-04-29T19:33:01.869Z,15.30
2019-04-29T19:35:38.611Z,15.23
2019-04-29T19:38:12.528Z,15.00
2019-04-29T19:40:46.126Z,14.30
2019-04-29T19:43:19.689Z,14.10
2019-04-29T19:45:53.135Z,14.97
2019-04-29T19:48:28.406Z,15.00
2019-04-29T19:51:18.544Z,15.97
2019-04-29T19:53:42.485Z,16.33
2019-04-29T19:56:21.071Z,17.60
2019-04-29T19:58:47.887Z,17.80
2019-04-29T20:01:29.673Z,19.80
2019-04-29T20:04:02.039Z,20.40
2019-04-29T20:06:37.224Z,21.60
2019-04-29T20:09:17.188Z,22.50
2019-04-29T20:11:48.591Z,24.57
2019-04-29T20:14:27.332Z,25.00
2019-04-29T20:17:09.532Z,24.70
2019-04-29T20:19:42.508Z,27.93
2019-04-29T20:22:16.527Z,29.77
2019-04-29T20:24:50.918Z,25.50
2019-04-29T20:27:26.195Z,26.30
2019-04-29T20:30:00.005Z,29.43
2019-04-29T20:32:33.689Z,28.93
2019-04-29T20:35:08.933Z,28.90
2019-04-29T20:37:43.320Z,28.43
2019-04-29T20:40:17.118Z,30.40
2019-04-29T20:42:50.828Z,27.60
2019-04-29T20:45:27.792Z,30.27
2019-04-29T20:47:59.747Z,29.80
2019-04-29T20:50:35.424Z,28.30
2019-04-29T20:53:15.451Z,29.40
2019-04-29T20:55:48.828Z,27.07
2019-04-29T20:58:23.584Z,29.10
2019-04-29T21:01:03.149Z,31.03
2019-04-29T21:03:33.121Z,25.90
2019-04-29T21:06:06.605Z,29.83
2019-04-29T21:08:40.137Z,30.97
2019-04-29T21:11:22.193Z,30.13
2019-04-29T21:14:13.464Z,29.70
2019-04-29T21:16:48.547Z,32.20
2019-04-29T21:19:22.092Z,31.30
2019-04-29T21:21:55.617Z,32.77
2019-04-29T21:24:29.002Z,29.83
2019-04-29T21:27:02.428Z,31.17
2019-04-29T21:29:35.999Z,31.13
2019-04-29T21:32:09.500Z,28.97
2019-04-29T21:34:47.692Z,29.97
2019-04-29T21:37:46.726Z,30.97
2019-04-29T21:40:26.030Z,29.77
2019-04-29T21:43:06.290Z,30.63
2019-04-29T21:45:39.907Z,31.47
2019-04-29T21:48:14.056Z,30.73
2019-04-29T21:50:47.562Z,29.53
2019-04-29T21:53:21.277Z,28.20
2019-04-29T21:55:55.434Z,26.93
2019-04-29T21:58:32.926Z,27.17
2019-04-29T22:01:05.498Z,26.23
2019-04-29T22:03:38.925Z,26.63
2019-04-29T22:06:12.559Z,31.63
2019-04-29T22:08:46.062Z,31.87
2019-04-29T22:11:22.228Z,32.47
2019-04-29T22:13:55.660Z,33.23
2019-04-29T22:16:29.518Z,34.10
2019-04-29T22:19:02.945Z,33.13
2019-04-29T22:21:36.732Z,32.47
2019-04-29T22:24:10.175Z,32.63
2019-04-29T22:26:45.052Z,31.80
2019-04-29T22:29:18.673Z,29.90
2019-04-29T22:31:52.154Z,34.33
2019-04-29T22:34:25.729Z,36.20
2019-04-29T22:37:01.141Z,34.43
2019-04-29T22:39:35.704Z,29.87
2019-04-29T22:42:16.834Z,29.47
2019-04-29T22:44:52.653Z,32.60
2019-04-29T22:47:25.681Z,30.83
2019-04-29T22:50:03.218Z,30.77
2019-04-29T22:52:34.874Z,31.40
2019-04-29T22:55:09.974Z,29.50
2019-04-29T22:57:44.887Z,31.50
2019-04-29T23:00:20.136Z,31.53
2019-04-29T23:02:53.635Z,31.30
2019-04-29T23:05:27.925Z,34.87
2019-04-29T23:08:02.401Z,32.83
2019-04-29T23:10:35.788Z,35.27
2019-04-29T23:13:09.185Z,34.37
2019-04-29T23:15:42.599Z,34.63
2019-04-29T23:18:24.611Z,36.17
2019-04-29T23:20:55.435Z,35.83
2019-04-29T23:23:38.280Z,34.33
2019-04-29T23:26:11.679Z,35.03
2019-04-29T23:28:45.749Z,36.20
2019-04-29T23:31:22.627Z,35.60
2019-04-29T23:33:56.419Z,34.47
2019-04-29T23:36:30.029Z,35.80
2019-04-29T23:39:04.991Z,36.33
2019-04-29T23:41:38.437Z,35.10
2019-04-29T23:44:11.855Z,36.37
2019-04-29T23:46:47.432Z,35.70
2019-04-29T23:49:20.508Z,38.50
2019-04-29T23:51:53.845Z,34.23
2019-04-29T23:54:28.219Z,37.47
2019-04-29T23:57:03.717Z,37.10
2019-04-29T23:59:58.572Z,35.17
